Time;durP1;ratioP1;P1;durP2;ratioP2;P2;SDS_P1;SDS_P2;PMS_P1;PMS_P2;Temp;Humidity;BMP_temperature;BMP_pressure;BME280_temperature;BME280_humidity;BME280_pressure;Samples;Min_cycle;Max_cycle;Signal;HPM_P1;HPM_P2
2022/12/25 00:03:35;;;;;;;19.70;7.38;;;;;;;7.21;100.00;101295.28;10577484;28;20051;-70
2022/12/25 00:08:39;;;;;;;16.90;7.32;;;;;;;7.24;100.00;101301.28;10577336;28;20131;-71
2022/12/25 00:13:44;;;;;;;26.95;6.78;;;;;;;7.27;100.00;101291.72;10577708;28;20052;-69
2022/12/25 00:18:46;;;;;;;19.52;7.45;;;;;;;7.30;100.00;101295.97;10578027;28;20052;-70
2022/12/25 00:23:52;;;;;;;24.10;6.82;;;;;;;7.33;100.00;101303.72;10585246;28;20047;-70
2022/12/25 00:28:58;;;;;;;17.23;6.35;;;;;;;7.39;100.00;101297.53;10584858;28;20126;-71
2022/12/25 00:34:00;;;;;;;18.73;6.72;;;;;;;7.41;100.00;101294.00;10584764;28;20058;-66
2022/12/25 00:39:02;;;;;;;17.98;6.78;;;;;;;7.43;100.00;101297.41;10584889;28;20058;-69
2022/12/25 00:44:05;;;;;;;;;;;;;;;7.46;100.00;101293.91;10584632;28;20105;-69
2022/12/25 00:49:07;;;;;;;20.23;7.57;;;;;;;7.49;100.00;101287.78;10581777;28;19926;-71
2022/12/25 00:54:09;;;;;;;16.85;6.22;;;;;;;7.47;100.00;101295.63;10584423;28;20649;-70
2022/12/25 00:59:13;;;;;;;18.38;7.03;;;;;;;7.48;100.00;101284.34;10583673;28;20552;-68
2022/12/25 01:04:15;;;;;;;22.13;8.13;;;;;;;7.50;100.00;101276.50;10583602;28;20105;-69
2022/12/25 01:14:38;;;;;;;14.77;7.15;;;;;;;7.49;100.00;101274.81;10580691;28;20047;-68
2022/12/25 01:19:40;;;;;;;17.50;6.65;;;;;;;7.41;100.00;101278.44;10582802;28;20090;-68
2022/12/25 01:24:42;;;;;;;17.48;7.93;;;;;;;7.49;100.00;101282.59;10583280;28;20105;-70
2022/12/25 01:29:47;;;;;;;20.25;7.60;;;;;;;7.50;100.00;101282.56;10582510;28;20494;-69
2022/12/25 01:34:48;;;;;;;11.35;6.30;;;;;;;7.46;100.00;101294.75;10582690;28;20061;-68
2022/12/25 01:39:50;;;;;;;24.77;7.13;;;;;;;7.49;100.00;101300.78;10582323;28;20060;-69
2022/12/25 01:45:38;;;;;;;26.27;7.30;;;;;;;7.55;100.00;101298.91;10579258;28;20047;-68
2022/12/25 01:50:47;;;;;;;19.17;6.65;;;;;;;7.60;100.00;101309.19;10582409;28;20516;-69
2022/12/25 01:55:56;;;;;;;17.90;6.45;;;;;;;7.64;100.00;101328.16;10581617;28;20097;-69
2022/12/25 02:00:59;;;;;;;19.50;6.97;;;;;;;7.67;100.00;101333.28;10580782;28;20052;-69
2022/12/25 02:06:03;;;;;;;17.05;6.68;;;;;;;7.69;100.00;101329.75;10580956;28;20052;-70
2022/12/25 02:11:05;;;;;;;13.85;6.70;;;;;;;7.72;100.00;101328.81;10581658;28;20043;-69
2022/12/25 02:16:18;;;;;;;15.90;7.03;;;;;;;7.71;100.00;101327.13;10578000;28;20048;-69
2022/12/25 02:21:48;;;;;;;19.45;7.45;;;;;;;7.73;100.00;101333.13;10580187;28;20062;-68
2022/12/25 02:27:05;;;;;;;14.05;7.22;;;;;;;7.76;100.00;101340.03;10580458;28;20508;-71
2022/12/25 02:32:21;;;;;;;21.50;7.50;;;;;;;7.77;100.00;101337.34;10580162;28;20093;-70
2022/12/25 02:37:32;;;;;;;16.05;6.18;;;;;;;7.79;100.00;101326.94;10579819;28;20040;-70
2022/12/25 03:31:22;;;;;;;12.75;6.32;;;;;;;7.34;100.00;101235.31;10578103;28;20071;-70
2022/12/25 03:36:40;;;;;;;11.75;6.25;;;;;;;7.26;100.00;101232.91;10578507;28;20058;-69
2022/12/25 04:40:38;;;;;;;9.90;5.53;;;;;;;7.47;100.00;101226.34;10584973;28;20043;-70
2022/12/25 04:45:40;;;;;;;7.53;5.43;;;;;;;7.52;100.00;101228.00;10581685;28;20078;-71
2022/12/25 04:50:41;;;;;;;7.22;4.55;;;;;;;7.52;100.00;101221.03;10584449;28;20051;-69
2022/12/25 04:55:44;;;;;;;14.52;5.43;;;;;;;7.47;100.00;101215.94;10583911;28;20044;-71
2022/12/25 05:00:46;;;;;;;7.97;7.38;;;;;;;7.41;100.00;101205.72;10583490;28;20417;-71
2022/12/25 05:05:48;;;;;;;6.63;5.22;;;;;;;7.37;100.00;101201.47;10582595;28;20039;-69
2022/12/25 05:10:51;;;;;;;7.78;4.80;;;;;;;7.34;100.00;101198.94;10583208;28;20056;-72
2022/12/25 05:15:53;;;;;;;5.20;4.70;;;;;;;7.41;100.00;101189.28;10580608;28;20048;-69
2022/12/25 05:20:55;;;;;;;9.95;5.28;;;;;;;7.50;100.00;101199.47;10582838;28;20051;-69
2022/12/25 05:25:58;;;;;;;9.00;4.63;;;;;;;7.55;100.00;101181.16;10582555;28;20586;-70
2022/12/25 05:31:02;;;;;;;6.50;5.25;;;;;;;7.65;100.00;101173.97;10582693;28;20059;-70
2022/12/25 05:36:06;;;;;;;5.85;5.03;;;;;;;7.64;100.00;101149.78;10582223;28;20424;-71
2022/12/25 05:41:09;;;;;;;6.30;4.65;;;;;;;7.70;100.00;101153.97;10582378;28;20062;-70
2022/12/25 05:46:13;;;;;;;8.10;4.63;;;;;;;7.73;100.00;101154.72;10579585;28;20043;-69
2022/12/25 05:51:15;;;;;;;6.32;3.95;;;;;;;7.76;100.00;101152.94;10582121;28;20117;-69
2022/12/25 05:56:18;;;;;;;5.18;4.30;;;;;;;7.83;100.00;101160.53;10581334;28;20117;-69
2022/12/25 06:01:24;;;;;;;4.95;4.45;;;;;;;7.89;100.00;101148.25;10581222;28;20112;-68
2022/12/25 06:06:25;;;;;;;5.18;4.22;;;;;;;7.88;100.00;101137.03;10581215;28;20104;-70
2022/12/25 06:11:29;;;;;;;6.75;3.75;;;;;;;7.94;100.00;101141.22;10580909;28;20425;-73
2022/12/25 06:16:30;;;;;;;7.93;3.95;;;;;;;7.94;100.00;101133.44;10578170;28;20116;-71
2022/12/25 06:21:33;;;;;;;6.45;4.03;;;;;;;7.91;100.00;101115.31;10580425;28;20047;-69
2022/12/25 06:26:36;;;;;;;6.95;3.83;;;;;;;7.89;100.00;101107.56;10580056;28;20490;-69
2022/12/25 06:31:38;;;;;;;4.90;4.22;;;;;;;7.93;100.00;101119.56;10580583;28;20058;-71
2022/12/25 06:36:40;;;;;;;7.70;3.97;;;;;;;8.00;100.00;101109.84;10580279;28;20050;-69
2022/12/25 06:41:43;;;;;;;5.43;3.88;;;;;;;8.03;100.00;101098.50;10579859;28;20044;-70
2022/12/25 06:46:44;;;;;;;9.50;4.07;;;;;;;8.06;100.00;101082.84;10576929;28;20047;-71
2022/12/25 06:51:47;;;;;;;5.68;3.95;;;;;;;7.97;100.00;101071.81;10579839;28;20093;-69
2022/12/25 06:56:50;;;;;;;12.40;4.07;;;;;;;7.91;100.00;101046.00;10579201;28;20101;-68
2022/12/25 07:01:55;;;;;;;7.97;4.20;;;;;;;7.90;100.00;101041.69;10578675;28;20232;-69
2022/12/25 07:06:57;;;;;;;6.40;4.40;;;;;;;7.91;100.00;101047.75;10578575;28;20036;-68
2022/12/25 07:12:05;;;;;;;8.07;4.38;;;;;;;7.88;100.00;101046.09;10578753;28;20475;-68
2022/12/25 07:17:07;;;;;;;5.22;4.65;;;;;;;7.85;100.00;101053.97;10576472;28;20047;-68
2022/12/25 07:22:09;;;;;;;4.10;3.80;;;;;;;7.82;100.00;101059.25;10578150;28;20425;-68
2022/12/25 07:27:13;;;;;;;5.68;5.03;;;;;;;7.77;100.00;101072.34;10577875;28;20071;-68
2022/12/25 07:32:15;;;;;;;7.47;4.13;;;;;;;7.71;100.00;101091.56;10578752;28;20047;-68
2022/12/25 07:37:17;;;;;;;11.75;4.50;;;;;;;7.71;100.00;101091.56;10578037;28;20043;-68
2022/12/25 07:42:20;;;;;;;6.70;4.38;;;;;;;7.68;100.00;101073.47;10577850;28;20476;-68
2022/12/25 07:47:21;;;;;;;5.72;4.38;;;;;;;7.65;100.00;101046.69;10575241;28;20128;-68
2022/12/25 07:52:23;;;;;;;5.18;4.75;;;;;;;7.62;100.00;101063.22;10577829;28;20047;-68
2022/12/25 07:57:26;;;;;;;4.90;4.20;;;;;;;7.63;100.00;101059.72;10578379;28;20052;-68
2022/12/25 08:02:28;;;;;;;9.73;5.30;;;;;;;7.63;100.00;101097.84;10577279;28;20052;-68
2022/12/25 08:07:29;;;;;;;5.53;4.95;;;;;;;7.62;100.00;101109.97;10577500;28;20048;-68
2022/12/25 08:12:32;;;;;;;9.00;5.47;;;;;;;7.68;100.00;101108.97;10577030;28;20244;-69
2022/12/25 08:17:34;;;;;;;8.68;4.75;;;;;;;7.66;100.00;101128.94;10575536;28;20105;-69
2022/12/25 08:22:36;;;;;;;8.65;5.63;;;;;;;7.67;100.00;101144.47;10577307;28;20068;-68
2022/12/25 08:27:39;;;;;;;9.63;4.47;;;;;;;7.68;100.00;101115.03;10576886;28;20130;-68
2022/12/25 08:32:41;;;;;;;6.88;5.47;;;;;;;7.70;100.00;101108.03;10576912;28;20066;-68
2022/12/25 08:37:43;;;;;;;12.63;5.32;;;;;;;7.71;100.00;101125.34;10576973;28;20044;-69
2022/12/25 08:42:46;;;;;;;8.65;4.78;;;;;;;7.75;100.00;101140.84;10584996;28;20059;-68
2022/12/25 08:47:47;;;;;;;10.00;5.45;;;;;;;7.82;100.00;101144.97;10581552;28;20078;-68
2022/12/25 08:52:50;;;;;;;6.30;5.70;;;;;;;7.81;100.00;101141.56;10584064;28;20044;-69
2022/12/25 08:57:53;;;;;;;16.60;6.15;;;;;;;7.79;100.00;101132.06;10584106;28;20110;-68
2022/12/25 09:02:55;;;;;;;8.20;5.55;;;;;;;7.72;100.00;101119.25;10583891;28;20146;-68
2022/12/25 09:07:57;;;;;;;8.38;4.22;;;;;;;7.68;100.00;101098.56;10583674;28;20051;-68
2022/12/25 09:13:00;;;;;;;9.20;5.00;;;;;;;7.72;100.00;101090.69;10583404;28;20119;-68
2022/12/25 09:18:01;;;;;;;8.73;6.18;;;;;;;7.70;100.00;101120.19;10580579;28;20147;-69
2022/12/25 09:23:03;;;;;;;9.38;6.47;;;;;;;7.76;100.00;101126.97;10583226;28;20055;-68
2022/12/25 09:28:06;;;;;;;7.30;5.05;;;;;;;7.72;100.00;101119.25;10582989;28;20078;-68
2022/12/25 09:33:08;;;;;;;14.32;7.50;;;;;;;7.68;100.00;101102.03;10582369;28;20113;-69
2022/12/25 09:38:10;;;;;;;9.27;5.90;;;;;;;7.66;100.00;101100.38;10582389;28;20456;-69
2022/12/25 09:43:20;;;;;;;8.65;4.43;;;;;;;7.56;100.00;101074.63;10582626;28;20105;-69
2022/12/25 09:48:22;;;;;;;9.95;5.40;;;;;;;7.54;100.00;101080.75;10579397;28;20047;-69
2022/12/25 09:53:28;;;;;;;7.50;5.45;;;;;;;7.56;100.00;101092.81;10581479;28;20081;-70
2022/12/25 09:58:33;;;;;;;7.82;4.88;;;;;;;7.57;100.00;101070.28;10581630;28;20172;-69
2022/12/25 10:04:03;;;;;;;10.48;4.93;;;;;;;7.58;100.00;101072.84;10582057;28;20050;-69
2022/12/25 10:09:37;;;;;;;9.63;5.55;;;;;;;7.62;100.00;101063.22;10581343;28;20105;-70
2022/12/25 10:14:55;;;;;;;9.85;5.03;;;;;;;7.61;100.00;101058.94;10579163;28;20057;-70
2022/12/25 10:20:17;;;;;;;8.57;5.20;;;;;;;7.64;100.00;101055.41;10580357;28;20100;-70
2022/12/25 10:25:22;;;;;;;6.63;5.55;;;;;;;7.72;100.00;101056.91;10580497;28;20039;-70
2022/12/25 10:30:28;;;;;;;9.45;6.18;;;;;;;7.80;100.00;101045.44;10580103;28;20048;-70
2022/12/25 10:35:31;;;;;;;11.18;6.47;;;;;;;7.77;100.00;101055.91;10580369;28;20040;-71
2022/12/25 10:40:47;;;;;;;11.43;6.40;;;;;;;7.76;100.00;101054.22;10579646;28;20108;-71
2022/12/25 10:45:50;;;;;;;9.38;6.65;;;;;;;7.68;100.00;101050.09;10577108;28;20456;-71
2022/12/25 10:50:52;;;;;;;15.32;7.60;;;;;;;7.66;100.00;101030.25;10579044;28;20048;-71
2022/12/25 10:55:55;;;;;;;;;;;;;;;7.64;100.00;101009.50;10579738;28;20047;-70
2022/12/25 11:01:03;;;;;;;9.77;6.68;;;;;;;7.67;100.00;100995.56;10578510;28;19973;-71
2022/12/25 11:06:07;;;;;;;17.98;7.25;;;;;;;7.69;100.00;100997.22;10578858;28;20047;-71
2022/12/25 11:11:37;;;;;;;14.35;7.75;;;;;;;7.71;100.00;101007.59;10578606;28;20043;-72
2022/12/25 11:16:40;;;;;;;14.63;8.05;;;;;;;7.71;100.00;100992.84;10576511;28;20097;-71
2022/12/25 11:21:51;;;;;;;11.07;8.60;;;;;;;7.77;100.00;100988.38;10578237;28;20043;-70
2022/12/25 11:26:55;;;;;;;;;;;;;;;7.70;100.00;100966.91;10578529;28;20059;-69
2022/12/25 11:32:02;;;;;;;9.30;7.40;;;;;;;7.69;100.00;100942.69;10578230;28;19919;-69
2022/12/25 11:37:14;;;;;;;13.93;6.55;;;;;;;7.73;100.00;100948.63;10578065;28;20116;-69
2022/12/25 11:42:22;;;;;;;;;;;;;;;7.69;100.00;100934.88;10578614;28;20479;-69
2022/12/25 11:47:36;;;;;;;11.48;5.85;;;;;;;7.61;100.00;100934.25;10575576;28;19945;-70
2022/12/25 11:52:42;;;;;;;10.38;7.95;;;;;;;7.60;100.00;100935.16;10577687;28;20514;-71
2022/12/25 11:57:50;;;;;;;11.60;7.45;;;;;;;7.63;100.00;100916.88;10577506;28;20547;-71
2022/12/25 12:03:01;;;;;;;8.63;6.18;;;;;;;7.57;100.00;100909.25;10578102;28;20248;-71
2022/12/25 12:08:06;;;;;;;11.60;7.32;;;;;;;7.59;100.00;100917.84;10577568;28;20051;-71
2022/12/25 12:13:30;;;;;;;18.48;9.98;;;;;;;7.60;100.00;100914.38;10580056;28;20062;-71
2022/12/25 12:18:34;;;;;;;24.08;10.73;;;;;;;7.64;100.00;100915.13;10582944;28;20104;-71
2022/12/25 12:23:55;;;;;;;22.88;11.32;;;;;;;7.67;100.00;100900.28;10585662;28;20098;-72
2022/12/25 12:29:01;;;;;;;16.10;9.15;;;;;;;7.67;100.00;100895.09;10585186;28;20048;-70
2022/12/25 12:34:05;;;;;;;13.25;9.90;;;;;;;7.67;100.00;100884.69;10585074;28;20108;-71
2022/12/25 12:39:07;;;;;;;15.13;11.02;;;;;;;7.72;100.00;100872.44;10584917;28;20073;-71
2022/12/25 12:44:12;;;;;;;18.88;10.70;;;;;;;7.86;100.00;100873.78;10584325;28;20051;-71
2022/12/25 12:49:23;;;;;;;16.38;10.05;;;;;;;7.85;100.00;100882.47;10582237;28;20548;-71
2022/12/25 12:54:26;;;;;;;14.53;10.60;;;;;;;7.89;100.00;100878.88;10584282;28;20048;-70
2022/12/25 12:59:39;;;;;;;18.30;11.13;;;;;;;7.82;100.00;100878.22;10583883;28;20557;-70
2022/12/25 13:05:03;;;;;;;19.25;13.30;;;;;;;7.91;100.00;100865.84;10583598;28;20061;-71
2022/12/25 13:10:23;;;;;;;21.30;13.30;;;;;;;7.93;100.00;100857.09;10583759;28;20089;-71
2022/12/25 13:15:30;;;;;;;25.50;14.13;;;;;;;7.90;100.00;100833.78;10581004;28;20471;-71
2022/12/25 13:20:44;;;;;;;19.20;15.23;;;;;;;7.93;100.00;100823.31;10582763;28;20384;-71
2022/12/25 13:25:53;;;;;;;13.65;10.05;;;;;;;7.95;100.00;100816.34;10581995;28;20433;-71
2022/12/25 13:31:03;;;;;;;14.55;9.63;;;;;;;7.94;100.00;100814.63;10582668;28;20050;-71
2022/12/25 13:36:12;;;;;;;18.08;10.18;;;;;;;7.93;100.00;100806.84;10582508;28;20563;-71
2022/12/25 13:46:39;;;;;;;14.60;11.00;;;;;;;7.96;100.00;100797.25;10579732;28;20044;-71
2022/12/25 13:51:43;;;;;;;22.85;10.73;;;;;;;7.96;100.00;100807.63;10581682;28;20044;-70
2022/12/25 13:56:50;;;;;;;20.00;12.25;;;;;;;7.95;100.00;100785.16;10581596;28;20510;-70
2022/12/25 14:01:53;;;;;;;22.80;11.30;;;;;;;7.97;100.00;100795.47;10581968;28;20055;-70
2022/12/25 14:06:56;;;;;;;19.65;11.55;;;;;;;7.95;100.00;100790.34;10580972;28;20422;-71
2022/12/25 14:11:58;;;;;;;19.65;12.32;;;;;;;7.96;100.00;100784.25;10581032;28;20405;-70
2022/12/25 14:16:59;;;;;;;16.35;10.77;;;;;;;7.96;100.00;100780.78;10578960;28;20044;-70
2022/12/25 14:22:10;;;;;;;16.13;10.88;;;;;;;7.96;100.00;100762.59;10580634;28;20104;-71
2022/12/25 14:27:20;;;;;;;12.82;9.60;;;;;;;7.96;100.00;100750.47;10580303;28;20048;-70
2022/12/25 14:32:24;;;;;;;9.18;7.00;;;;;;;7.95;100.00;100738.38;10580475;28;20100;-70
2022/12/25 14:37:32;;;;;;;15.63;9.20;;;;;;;7.94;100.00;100741.84;10579195;28;20294;-70
2022/12/25 14:42:35;;;;;;;10.75;7.93;;;;;;;7.92;100.00;100738.47;10579982;28;20163;-71
2022/12/25 14:47:51;;;;;;;14.10;8.90;;;;;;;7.93;100.00;100745.34;10577564;28;20078;-70
2022/12/25 14:52:55;;;;;;;18.55;9.57;;;;;;;7.93;100.00;100755.75;10579336;28;20054;-70
2022/12/25 14:58:03;;;;;;;14.40;8.75;;;;;;;7.93;100.00;100747.97;10579315;28;20051;-70
2022/12/25 15:03:15;;;;;;;16.23;9.77;;;;;;;7.93;100.00;100760.94;10579264;28;20055;-70
2022/12/25 15:08:24;;;;;;;;;;;;;;;7.92;100.00;100748.88;10579781;28;20076;-70
2022/12/25 15:13:27;;;;;;;17.23;9.60;;;;;;;7.93;100.00;100755.75;10578757;28;20275;-70
2022/12/25 15:18:36;;;;;;;17.20;10.82;;;;;;;7.92;100.00;100754.06;10575954;28;20059;-70
2022/12/25 15:23:39;;;;;;;15.40;11.82;;;;;;;7.93;100.00;100757.50;10578420;28;20113;-70
2022/12/25 15:28:41;;;;;;;14.52;9.93;;;;;;;7.92;100.00;100754.06;10578357;28;20082;-70
2022/12/25 15:33:44;;;;;;;17.35;9.82;;;;;;;7.90;100.00;100740.25;10578588;28;20048;-70
2022/12/25 15:38:47;;;;;;;16.40;11.30;;;;;;;7.89;100.00;100743.75;10578084;28;20047;-70
2022/12/25 15:43:49;;;;;;;20.95;14.77;;;;;;;7.87;100.00;100740.34;10577937;28;20051;-70
2022/12/25 15:48:51;;;;;;;19.63;10.75;;;;;;;7.84;100.00;100730.06;10579352;28;20047;-70
2022/12/25 15:53:54;;;;;;;26.05;14.57;;;;;;;7.89;100.00;100748.94;10586704;28;20453;-70
2022/12/25 15:58:55;;;;;;;19.15;12.63;;;;;;;7.86;100.00;100738.66;10586445;28;20054;-70
2022/12/25 16:03:57;;;;;;;38.85;35.40;;;;;;;7.80;100.00;100736.28;10586134;28;20513;-71
2022/12/25 16:09:00;;;;;;;37.67;34.53;;;;;;;7.83;100.00;100730.94;10585722;28;20425;-71
2022/12/25 16:14:03;;;;;;;7.32;5.88;;;;;;;7.80;100.00;100733.69;10586002;28;20083;-71
2022/12/25 16:19:05;;;;;;;14.27;8.95;;;;;;;7.78;100.00;100730.25;10583532;28;20121;-71
2022/12/25 16:24:09;;;;;;;13.75;9.00;;;;;;;7.74;100.00;100729.53;10585445;28;20044;-71
2022/12/25 16:29:11;;;;;;;12.52;9.07;;;;;;;7.75;100.00;100730.34;10585512;28;20109;-72
2022/12/25 16:34:13;;;;;;;19.85;10.82;;;;;;;7.76;100.00;100732.09;10585262;28;20126;-71
2022/12/25 16:39:16;;;;;;;15.35;10.20;;;;;;;7.78;100.00;100736.31;10584816;28;20040;-71
2022/12/25 16:44:18;;;;;;;15.82;10.88;;;;;;;7.80;100.00;100741.47;10584440;28;20092;-71
2022/12/25 16:49:19;;;;;;;13.45;9.27;;;;;;;7.73;100.00;100733.88;10581708;28;20137;-71
2022/12/25 16:54:22;;;;;;;15.82;9.82;;;;;;;7.77;100.00;100728.56;10584556;28;20047;-71
2022/12/25 16:59:24;;;;;;;25.67;8.80;;;;;;;7.78;100.00;100722.47;10582972;28;20069;-71
2022/12/25 17:04:27;;;;;;;15.23;8.90;;;;;;;7.77;100.00;100713.00;10583619;28;20426;-71
2022/12/25 17:09:30;;;;;;;20.10;12.77;;;;;;;7.79;100.00;100726.75;10583598;28;20069;-71
2022/12/25 17:14:33;;;;;;;21.77;11.95;;;;;;;7.79;100.00;100731.97;10583318;28;20463;-71
2022/12/25 17:19:35;;;;;;;19.80;12.90;;;;;;;7.83;100.00;100741.34;10581512;28;20669;-71
2022/12/25 17:24:40;;;;;;;26.85;15.00;;;;;;;7.85;100.00;100731.78;10583050;28;20050;-71
2022/12/25 17:29:42;;;;;;;32.13;19.45;;;;;;;7.86;100.00;100728.25;10582570;28;20047;-71
2022/12/25 17:34:44;;;;;;;41.47;12.85;;;;;;;7.85;100.00;100710.97;10582209;28;20043;-71
2022/12/25 17:39:47;;;;;;;25.80;12.88;;;;;;;7.82;100.00;100714.53;10582434;28;20495;-71
2022/12/25 17:44:49;;;;;;;27.10;13.95;;;;;;;7.79;100.00;100711.16;10580042;28;20550;-71
2022/12/25 17:49:50;;;;;;;32.00;16.52;;;;;;;7.82;100.00;100711.06;10581690;28;20412;-71
2022/12/25 17:54:53;;;;;;;25.55;15.38;;;;;;;7.82;100.00;100721.47;10581590;28;20043;-71
2022/12/25 17:59:55;;;;;;;27.98;15.90;;;;;;;7.88;100.00;100710.88;10581732;28;20048;-71
2022/12/25 18:04:57;;;;;;;24.10;14.40;;;;;;;7.89;100.00;100702.19;10581406;28;20044;-71
2022/12/25 18:10:00;;;;;;;31.48;16.50;;;;;;;7.90;100.00;100697.84;10580566;28;20048;-71
2022/12/25 18:15:02;;;;;;;30.58;15.50;;;;;;;7.87;100.00;100709.16;10578414;28;20047;-71
2022/12/25 18:20:05;;;;;;;29.05;16.63;;;;;;;7.95;100.00;100707.19;10580351;28;20086;-71
2022/12/25 18:25:09;;;;;;;30.58;17.30;;;;;;;7.99;100.00;100707.91;10580714;28;20418;-70
2022/12/25 18:30:11;;;;;;;33.90;17.13;;;;;;;8.02;100.00;100712.16;10579710;28;20123;-70
2022/12/25 18:35:13;;;;;;;38.90;20.20;;;;;;;8.07;100.00;100725.84;10579587;28;20081;-71
2022/12/25 18:40:16;;;;;;;30.70;17.95;;;;;;;8.17;100.00;100735.03;10579989;28;20128;-69
2022/12/25 18:45:19;;;;;;;34.13;18.77;;;;;;;8.21;100.00;100733.19;10577634;28;20104;-70
2022/12/25 18:50:21;;;;;;;30.70;16.67;;;;;;;8.30;100.00;100739.81;10579400;28;20145;-70
2022/12/25 18:55:24;;;;;;;25.95;14.88;;;;;;;8.38;100.00;100745.59;10578918;28;20047;-71
2022/12/25 19:00:26;;;;;;;24.40;13.65;;;;;;;8.42;100.00;100736.78;10579501;28;20051;-71
2022/12/25 19:05:28;;;;;;;;;;;;;;;8.48;100.00;100735.72;10580052;28;20069;-70
2022/12/25 19:10:31;;;;;;;21.75;13.13;;;;;;;8.50;100.00;100729.56;10578823;28;19919;-71
2022/12/25 19:15:34;;;;;;;24.15;13.63;;;;;;;8.53;100.00;100706.94;10576326;28;20044;-71
2022/12/25 19:20:40;;;;;;;24.58;13.88;;;;;;;8.54;100.00;100716.47;10578478;28;20490;-70
2022/12/25 19:25:43;;;;;;;24.85;14.75;;;;;;;8.57;100.00;100713.78;10577801;28;20145;-70
2022/12/25 19:30:44;;;;;;;23.45;13.65;;;;;;;8.60;100.00;100727.53;10578116;28;20607;-70
2022/12/25 19:35:47;;;;;;;28.55;15.95;;;;;;;8.63;100.00;100742.19;10578083;28;20498;-71
2022/12/25 19:40:59;;;;;;;20.67;13.27;;;;;;;8.65;100.00;100742.94;10577967;28;20152;-71
2022/12/25 19:46:02;;;;;;;;;;;;;;;8.68;100.00;100732.44;10576024;28;20067;-73
2022/12/25 19:51:03;;;;;;;21.20;13.13;;;;;;;8.67;100.00;100735.09;10577911;28;19919;-72
2022/12/25 19:56:07;;;;;;;30.35;18.25;;;;;;;8.67;100.00;100754.16;10577811;28;20085;-69
2022/12/25 20:01:12;;;;;;;22.98;15.07;;;;;;;8.70;100.00;100761.88;10577552;28;20061;-70
2022/12/25 20:06:20;;;;;;;26.30;15.52;;;;;;;8.70;100.00;100746.25;10577409;28;20054;-71
2022/12/25 20:11:26;;;;;;;32.50;16.58;;;;;;;8.72;100.00;100754.84;10578130;28;20047;-73
2022/12/25 20:16:28;;;;;;;25.92;15.70;;;;;;;8.69;100.00;100754.94;10574764;28;20453;-70
2022/12/25 20:21:30;;;;;;;;;;;;;;;8.69;100.00;100749.75;10577429;28;20055;-71
2022/12/25 20:26:33;;;;;;;25.17;15.50;;;;;;;8.72;100.00;100757.44;10577117;28;20011;-72
2022/12/25 20:31:35;;;;;;;21.08;13.88;;;;;;;8.72;100.00;100753.97;10577077;28;20354;-72
2022/12/25 20:36:37;;;;;;;25.05;16.00;;;;;;;8.72;100.00;100748.78;10583524;28;20048;-72
2022/12/25 20:41:41;;;;;;;28.58;16.17;;;;;;;8.75;100.00;100759.94;10584358;28;20552;-72
2022/12/25 20:46:44;;;;;;;32.72;17.85;;;;;;;8.82;100.00;100777.91;10582032;28;20070;-70
2022/12/25 20:51:46;;;;;;;33.47;17.60;;;;;;;8.81;100.00;100768.41;10583951;28;20043;-74
2022/12/25 20:56:50;;;;;;;22.75;13.43;;;;;;;8.78;100.00;100760.72;10584615;28;20048;-73
2022/12/25 21:01:54;;;;;;;27.65;13.93;;;;;;;8.79;100.00;100765.03;10583863;28;20043;-71
2022/12/25 21:06:55;;;;;;;85.00;78.88;;;;;;;8.78;100.00;100776.31;10583620;28;20062;-73
2022/12/25 21:11:58;;;;;;;292.58;275.27;;;;;;;8.78;100.00;100776.31;10583497;28;20100;-72
2022/12/25 21:17:00;;;;;;;328.73;308.33;;;;;;;8.78;100.00;100789.34;10581146;28;20104;-73
2022/12/25 21:22:02;;;;;;;312.77;295.30;;;;;;;8.75;100.00;100798.97;10583212;28;20081;-73
2022/12/25 21:27:05;;;;;;;253.32;238.30;;;;;;;8.78;100.00;100811.00;10582873;28;20058;-73
2022/12/25 21:37:27;;;;;;;297.17;279.90;;;;;;;8.75;100.00;100806.78;10582548;28;20039;-73
2022/12/25 21:42:30;;;;;;;247.25;233.00;;;;;;;8.80;100.00;100818.78;10582844;28;20089;-72
2022/12/25 21:47:32;;;;;;;255.52;240.93;;;;;;;8.81;100.00;100815.25;10579277;28;20093;-73
2022/12/25 21:52:35;;;;;;;240.35;225.85;;;;;;;8.81;100.00;100820.47;10581866;28;20563;-73
2022/12/25 21:57:38;;;;;;;228.90;215.18;;;;;;;8.79;100.00;100814.47;10582183;28;20052;-71
2022/12/25 22:02:40;;;;;;;244.45;230.68;;;;;;;8.81;100.00;100830.88;10581795;28;20057;-71
2022/12/25 22:07:42;;;;;;;204.85;192.57;;;;;;;8.78;100.00;100834.44;10582013;28;20092;-72
2022/12/25 22:23:24;;;;;;;249.13;234.52;;;;;;;8.79;100.00;100849.13;10581337;28;20040;-71
2022/12/25 22:28:27;;;;;;;340.92;318.70;;;;;;;8.75;100.00;100842.34;10580856;28;20096;-71
2022/12/25 22:33:30;;;;;;;208.48;195.80;;;;;;;8.75;100.00;100827.59;10580490;28;20047;-73
2022/12/25 22:38:32;;;;;;;276.88;261.08;;;;;;;8.69;100.00;100811.34;10579971;28;20100;-71
2022/12/25 22:43:35;;;;;;;275.05;258.98;;;;;;;8.63;100.00;100828.84;10580282;28;20048;-69
2022/12/25 22:48:37;;;;;;;247.15;232.20;;;;;;;8.65;100.00;100831.41;10577194;28;20100;-73
2022/12/25 22:53:38;;;;;;;234.95;220.18;;;;;;;8.63;100.00;100838.44;10579782;28;20051;-73
2022/12/25 22:58:42;;;;;;;236.25;221.95;;;;;;;8.65;100.00;100841.81;10578622;28;20043;-72
2022/12/25 23:03:43;;;;;;;230.25;216.93;;;;;;;8.66;100.00;100853.06;10579277;28;20449;-71
2022/12/25 23:08:45;;;;;;;230.35;216.63;;;;;;;8.63;100.00;100844.47;10578370;28;20055;-71
2022/12/25 23:29:50;;;;;;;206.02;192.80;;;;;;;8.59;100.00;100818.63;10578559;28;20043;-69
2022/12/25 23:34:52;;;;;;;198.88;186.73;;;;;;;8.53;100.00;100816.19;10578285;28;20048;-70
2022/12/25 23:39:54;;;;;;;213.27;200.32;;;;;;;8.47;100.00;100825.91;10578360;28;20040;-71
2022/12/25 23:44:57;;;;;;;214.73;201.10;;;;;;;8.45;100.00;100840.69;10576123;28;20428;-69
2022/12/25 23:49:59;;;;;;;210.15;197.10;;;;;;;8.47;100.00;100846.72;10578048;28;20572;-70
2022/12/25 23:55:00;;;;;;;213.52;200.55;;;;;;;8.45;100.00;100845.91;10577986;28;20092;-69
